createdAt,value
2023-05-05T00:01:53.617Z,3.13
2023-05-05T00:06:55.091Z,6.85
2023-05-05T00:11:56.621Z,2.50
2023-05-05T00:16:58.137Z,3.33
2023-05-05T00:21:59.653Z,3.53
2023-05-05T00:27:02.118Z,3.53
2023-05-05T00:32:03.690Z,2.13
2023-05-05T00:37:05.382Z,4.28
2023-05-05T00:42:07.377Z,3.53
2023-05-05T00:47:10.102Z,3.45
2023-05-05T00:52:11.873Z,1.63
2023-05-05T00:57:13.745Z,1.50
2023-05-05T01:02:15.371Z,6.10
2023-05-05T01:07:37.761Z,7.50
2023-05-05T01:13:05.464Z,3.90
2023-05-05T01:18:19.389Z,2.58
2023-05-05T01:23:54.777Z,2.53
2023-05-05T01:29:08.410Z,4.00
2023-05-05T01:34:16.487Z,4.03
2023-05-05T01:39:19.431Z,2.22
2023-05-05T01:44:21.612Z,1.38
2023-05-05T01:49:23.918Z,1.63
2023-05-05T01:54:27.319Z,4.00
2023-05-05T01:59:29.833Z,1.88
2023-05-05T02:04:33.887Z,2.72
2023-05-05T02:09:36.984Z,2.95
2023-05-05T02:14:40.488Z,3.28
2023-05-05T02:19:44.361Z,3.65
2023-05-05T02:24:46.073Z,8.15
2023-05-05T02:29:51.906Z,2.55
2023-05-05T02:34:54.563Z,2.50
2023-05-05T02:40:05.914Z,2.78
2023-05-05T02:45:21.369Z,8.70
2023-05-05T02:50:24.470Z,11.18
2023-05-05T02:55:45.252Z,1.80
2023-05-05T03:00:58.825Z,1.90
2023-05-05T03:06:07.291Z,1.02
2023-05-05T03:11:18.906Z,3.78
2023-05-05T03:16:25.315Z,1.92
2023-05-05T03:21:29.456Z,5.90
2023-05-05T03:26:31.860Z,2.70
2023-05-05T03:31:33.878Z,2.45
2023-05-05T03:36:36.713Z,4.93
2023-05-05T03:41:38.275Z,4.80
2023-05-05T03:46:42.772Z,7.65
2023-05-05T03:51:48.134Z,2.53
2023-05-05T03:56:50.697Z,3.83
2023-05-05T04:01:52.297Z,3.15
2023-05-05T04:06:53.929Z,4.20
2023-05-05T04:11:55.611Z,1.38
2023-05-05T04:16:57.305Z,2.20
2023-05-05T04:22:00.207Z,2.72
2023-05-05T04:27:03.216Z,2.80
2023-05-05T04:32:06.210Z,1.88
2023-05-05T04:37:08.508Z,3.15
2023-05-05T04:42:10.382Z,2.38
2023-05-05T04:47:14.442Z,3.05
2023-05-05T04:52:16.602Z,3.08
2023-05-05T04:57:18.679Z,1.35
2023-05-05T05:02:20.653Z,2.47
2023-05-05T05:07:24.424Z,5.13
2023-05-05T05:12:26.565Z,3.60
2023-05-05T05:17:29.984Z,2.25
2023-05-05T05:22:32.385Z,3.35
2023-05-05T05:27:34.240Z,3.10
2023-05-05T05:32:35.992Z,2.83
2023-05-05T05:37:38.601Z,2.83
2023-05-05T05:42:41.813Z,1.98
2023-05-05T05:47:43.904Z,5.65
2023-05-05T05:52:46.411Z,3.30
2023-05-05T05:57:48.939Z,3.08
2023-05-05T06:02:51.627Z,3.90
2023-05-05T06:07:56.491Z,6.20
2023-05-05T06:13:00.396Z,2.83
2023-05-05T06:18:02.537Z,5.43
2023-05-05T06:23:05.738Z,3.88
2023-05-05T06:28:10.959Z,3.92
2023-05-05T06:33:12.517Z,3.33
2023-05-05T06:38:14.160Z,2.70
2023-05-05T06:43:17.447Z,2.58
2023-05-05T06:48:26.512Z,5.38
2023-05-05T06:53:28.190Z,4.15
2023-05-05T06:58:29.953Z,6.95
2023-05-05T07:03:31.839Z,2.53
2023-05-05T07:08:33.471Z,3.00
2023-05-05T07:13:35.031Z,2.88
2023-05-05T07:18:36.698Z,9.38
2023-05-05T07:23:39.100Z,4.05
2023-05-05T07:28:41.528Z,2.28
2023-05-05T07:33:43.119Z,3.40
2023-05-05T07:38:44.785Z,6.65
2023-05-05T07:43:46.562Z,3.20
2023-05-05T07:48:48.196Z,4.55
2023-05-05T07:53:49.789Z,4.43
2023-05-05T07:58:51.975Z,5.10
2023-05-05T08:03:53.870Z,3.90
2023-05-05T08:08:55.947Z,3.35
2023-05-05T08:13:58.625Z,5.45
2023-05-05T08:19:00.121Z,4.20
2023-05-05T08:24:02.015Z,6.25
2023-05-05T08:29:03.738Z,4.80
2023-05-05T08:34:05.849Z,5.00
2023-05-05T08:39:07.355Z,6.07
2023-05-05T08:44:10.111Z,4.55
2023-05-05T08:49:16.196Z,5.60
2023-05-05T08:54:27.058Z,6.07
2023-05-05T08:59:31.344Z,6.20
2023-05-05T09:04:34.454Z,7.57
2023-05-05T09:09:36.480Z,4.80
2023-05-05T09:14:38.306Z,5.68
2023-05-05T09:20:00.207Z,6.03
2023-05-05T09:25:02.019Z,6.45
2023-05-05T09:30:05.675Z,4.78
2023-05-05T09:35:08.586Z,11.07
2023-05-05T09:40:14.814Z,6.43
2023-05-05T09:45:19.071Z,4.95
2023-05-05T09:50:23.560Z,6.07
2023-05-05T09:55:25.623Z,5.47
2023-05-05T10:00:39.852Z,8.75
2023-05-05T10:05:50.585Z,5.00
2023-05-05T10:10:57.641Z,10.43
2023-05-05T10:16:01.077Z,6.47
2023-05-05T10:21:04.573Z,6.82
2023-05-05T10:26:07.786Z,8.07
2023-05-05T10:31:27.089Z,6.60
2023-05-05T10:36:30.201Z,6.67
2023-05-05T10:41:33.559Z,6.55
2023-05-05T10:46:36.253Z,8.20
2023-05-05T10:51:53.680Z,6.03
2023-05-05T11:01:57.638Z,6.00
2023-05-05T11:07:10.317Z,6.75
2023-05-05T11:17:55.649Z,4.70
2023-05-05T11:23:03.225Z,8.48
2023-05-05T11:28:11.103Z,10.65
2023-05-05T11:33:28.534Z,11.15
2023-05-05T11:38:38.945Z,6.80
2023-05-05T11:43:41.756Z,7.47
2023-05-05T11:53:49.386Z,7.85
2023-05-05T11:59:09.839Z,7.50
2023-05-05T12:04:13.092Z,9.80
2023-05-05T12:09:22.927Z,7.22
2023-05-05T12:14:25.508Z,6.68
2023-05-05T12:19:33.282Z,7.45
2023-05-05T12:29:37.355Z,9.95
2023-05-05T12:34:38.936Z,8.70
2023-05-05T12:39:40.790Z,7.75
2023-05-05T13:20:19.381Z,11.47
2023-05-05T13:30:23.133Z,11.10
2023-05-05T13:35:24.783Z,11.45
2023-05-05T13:40:26.490Z,11.73
2023-05-05T13:45:28.623Z,9.05
2023-05-05T13:55:32.168Z,9.07
2023-05-05T14:10:46.752Z,8.48
2023-05-05T14:15:50.588Z,8.15
2023-05-05T14:20:52.645Z,12.02
2023-05-05T14:25:54.608Z,18.63
2023-05-05T14:30:58.742Z,8.70
2023-05-05T14:36:05.011Z,8.07
2023-05-05T14:41:06.701Z,9.85
2023-05-05T14:46:08.193Z,9.57
2023-05-05T14:51:09.827Z,10.20
2023-05-05T14:56:11.404Z,8.85
2023-05-05T15:01:12.917Z,10.07
2023-05-05T15:06:14.441Z,10.32
2023-05-05T15:11:16.069Z,9.05
2023-05-05T15:16:17.601Z,15.27
2023-05-05T15:21:19.288Z,9.60
2023-05-05T15:26:20.823Z,11.88
2023-05-05T15:31:22.555Z,8.60
2023-05-05T15:36:24.680Z,10.55
2023-05-05T15:41:29.190Z,8.52
2023-05-05T15:46:33.209Z,11.27
2023-05-05T15:51:35.214Z,8.40
2023-05-05T15:56:37.622Z,8.30
2023-05-05T16:01:40.070Z,10.50
2023-05-05T16:06:42.210Z,11.40
2023-05-05T16:11:43.839Z,12.55
2023-05-05T16:16:45.745Z,11.63
2023-05-05T16:21:48.137Z,11.45
2023-05-05T16:26:50.017Z,8.05
2023-05-05T16:31:51.828Z,4.97
2023-05-05T16:36:53.803Z,2.65
2023-05-05T16:41:55.583Z,3.95
2023-05-05T16:46:58.212Z,2.60
2023-05-05T16:51:59.865Z,2.13
2023-05-05T16:57:02.366Z,2.55
2023-05-05T17:02:04.133Z,2.00
2023-05-05T17:07:07.270Z,4.20
2023-05-05T17:12:08.797Z,4.03
2023-05-05T17:17:10.312Z,4.60
2023-05-05T17:22:11.828Z,5.13
2023-05-05T17:27:13.712Z,8.57
2023-05-05T17:32:15.365Z,6.70
2023-05-05T17:37:17.000Z,6.15
2023-05-05T17:42:22.927Z,6.07
2023-05-05T17:47:24.785Z,4.65
2023-05-05T17:52:27.057Z,4.03
2023-05-05T17:57:28.709Z,4.43
2023-05-05T18:02:30.389Z,5.00
2023-05-05T18:07:33.752Z,6.22
2023-05-05T18:12:35.876Z,6.70
2023-05-05T18:17:37.968Z,6.20
2023-05-05T18:22:39.722Z,6.65
2023-05-05T18:27:41.625Z,8.88
2023-05-05T18:32:43.284Z,8.77
2023-05-05T18:37:44.799Z,14.65
2023-05-05T18:42:46.370Z,12.18
2023-05-05T18:47:49.092Z,13.25
2023-05-05T18:52:50.725Z,12.48
2023-05-05T18:57:52.950Z,14.13
2023-05-05T19:02:54.786Z,15.43
2023-05-05T19:07:56.600Z,18.50
2023-05-05T19:12:59.039Z,12.63
2023-05-05T19:18:00.831Z,10.70
2023-05-05T19:23:04.515Z,14.23
2023-05-05T19:28:06.221Z,11.43
2023-05-05T19:33:07.822Z,11.32
2023-05-05T19:38:10.279Z,13.32
2023-05-05T19:43:11.918Z,12.45
2023-05-05T19:48:13.458Z,20.15
2023-05-05T19:53:15.076Z,14.23
2023-05-05T19:58:16.563Z,15.35
2023-05-05T20:03:18.199Z,14.45
2023-05-05T20:08:20.210Z,12.30
2023-05-05T20:13:23.149Z,14.25
2023-05-05T20:18:25.254Z,10.75
2023-05-05T20:23:27.548Z,11.05
2023-05-05T20:28:31.500Z,10.75
2023-05-05T20:33:33.369Z,14.13
2023-05-05T20:38:35.006Z,13.02
2023-05-05T20:43:37.669Z,10.98
2023-05-05T20:48:42.356Z,11.63
2023-05-05T20:53:44.838Z,15.10
2023-05-05T20:58:46.420Z,12.00
2023-05-05T21:03:48.031Z,11.25
2023-05-05T21:08:51.194Z,11.32
2023-05-05T21:13:53.035Z,11.77
2023-05-05T21:18:54.583Z,11.85
2023-05-05T21:23:57.595Z,12.82
2023-05-05T21:28:59.294Z,16.13
2023-05-05T21:34:01.100Z,13.57
2023-05-05T21:39:02.808Z,12.63
2023-05-05T21:44:04.674Z,13.02
2023-05-05T21:49:17.289Z,16.13
2023-05-05T21:54:19.328Z,12.75
2023-05-05T21:59:21.395Z,14.45
2023-05-05T22:04:23.711Z,12.82
2023-05-05T22:09:25.792Z,13.73
2023-05-05T22:14:27.552Z,13.40
2023-05-05T22:19:29.161Z,10.15
2023-05-05T22:24:31.401Z,10.30
2023-05-05T22:29:33.395Z,9.90
2023-05-05T22:34:38.239Z,10.63
2023-05-05T22:39:39.896Z,8.40
2023-05-05T22:44:41.574Z,11.38
2023-05-05T22:49:43.225Z,11.45
2023-05-05T22:54:44.988Z,9.90
2023-05-05T22:59:46.612Z,13.65
2023-05-05T23:04:48.423Z,8.40
2023-05-05T23:09:50.595Z,12.40
2023-05-05T23:14:52.449Z,8.38
2023-05-05T23:19:54.017Z,6.07
2023-05-05T23:24:55.715Z,9.20
2023-05-05T23:29:57.361Z,8.45
2023-05-05T23:34:58.982Z,9.63
2023-05-05T23:40:00.712Z,13.07
2023-05-05T23:45:02.313Z,7.97
2023-05-05T23:50:05.091Z,8.02
2023-05-05T23:55:07.398Z,9.23
